createdAt,value
2022-11-14T00:00:30.096Z,11.13
2022-11-14T00:03:01.112Z,10.60
2022-11-14T00:05:28.048Z,10.63
2022-11-14T00:07:54.531Z,13.03
2022-11-14T00:10:21.365Z,11.13
2022-11-14T00:12:47.850Z,11.07
2022-11-14T00:15:14.828Z,13.83
2022-11-14T00:17:41.329Z,11.90
2022-11-14T00:20:09.581Z,12.27
2022-11-14T00:22:35.921Z,12.03
2022-11-14T00:25:02.372Z,10.73
2022-11-14T00:27:28.814Z,9.03
2022-11-14T00:29:55.209Z,12.50
2022-11-14T00:32:22.547Z,11.33
2022-11-14T00:34:49.691Z,10.73
2022-11-14T00:37:16.033Z,10.77
2022-11-14T00:39:42.504Z,11.63
2022-11-14T00:42:08.937Z,13.07
2022-11-14T00:44:35.387Z,12.47
2022-11-14T00:47:01.756Z,11.43
2022-11-14T00:49:28.136Z,11.27
2022-11-14T00:51:54.550Z,10.87
2022-11-14T00:54:20.943Z,13.37
2022-11-14T00:56:47.347Z,12.30
2022-11-14T00:59:13.765Z,12.67
2022-11-14T01:01:40.247Z,13.90
2022-11-14T01:04:06.732Z,14.47
2022-11-14T01:06:33.112Z,12.97
2022-11-14T01:08:59.527Z,12.03
2022-11-14T01:11:25.965Z,15.70
2022-11-14T01:13:52.311Z,14.63
2022-11-14T01:16:20.006Z,16.97
2022-11-14T01:18:46.630Z,15.30
2022-11-14T01:21:14.383Z,11.17
2022-11-14T01:23:41.003Z,15.20
2022-11-14T01:26:10.610Z,12.90
2022-11-14T01:28:37.974Z,14.00
2022-11-14T01:31:29.079Z,15.20
2022-11-14T01:33:55.592Z,13.37
2022-11-14T01:36:22.070Z,13.87
2022-11-14T01:38:52.721Z,16.10
2022-11-14T01:41:19.655Z,13.40
2022-11-14T01:43:46.066Z,14.27
2022-11-14T01:46:22.756Z,14.77
2022-11-14T01:48:54.656Z,17.03
2022-11-14T01:51:43.334Z,16.77
2022-11-14T01:54:15.582Z,15.07
2022-11-14T01:56:49.712Z,16.20
2022-11-14T01:59:21.914Z,13.87
2022-11-14T02:01:51.917Z,15.87
2022-11-14T02:04:23.138Z,16.60
2022-11-14T02:06:51.705Z,17.17
2022-11-14T02:09:18.300Z,16.40
2022-11-14T02:11:46.097Z,14.47
2022-11-14T02:14:12.925Z,17.00
2022-11-14T02:16:41.753Z,17.63
2022-11-14T02:19:09.031Z,22.40
2022-11-14T02:21:35.716Z,20.40
2022-11-14T02:24:02.100Z,20.27
2022-11-14T02:26:33.018Z,19.57
2022-11-14T02:29:02.073Z,18.70
2022-11-14T02:31:28.434Z,17.97
2022-11-14T02:33:54.805Z,20.97
2022-11-14T02:36:21.505Z,19.90
2022-11-14T02:38:48.213Z,25.27
2022-11-14T02:41:14.553Z,19.73
2022-11-14T02:43:40.944Z,21.80
2022-11-14T02:46:07.389Z,21.63
2022-11-14T02:48:33.888Z,22.93
2022-11-14T02:51:00.244Z,22.30
2022-11-14T02:53:26.684Z,24.27
2022-11-14T02:55:53.027Z,20.77
2022-11-14T02:58:19.380Z,20.83
2022-11-14T03:01:13.596Z,21.67
2022-11-14T03:03:32.282Z,22.53
2022-11-14T03:06:00.410Z,19.27
2022-11-14T03:08:27.288Z,22.07
2022-11-14T03:10:54.247Z,24.00
2022-11-14T03:13:20.609Z,20.37
2022-11-14T03:15:47.087Z,24.33
2022-11-14T03:18:13.765Z,21.50
2022-11-14T03:20:40.263Z,21.07
2022-11-14T03:23:06.714Z,23.27
2022-11-14T03:25:33.071Z,25.53
2022-11-14T03:27:59.613Z,28.80
2022-11-14T03:30:25.964Z,24.03
2022-11-14T03:32:52.356Z,25.80
2022-11-14T03:35:18.788Z,28.97
2022-11-14T03:37:45.243Z,32.33
2022-11-14T03:40:11.804Z,30.73
2022-11-14T03:42:38.257Z,26.30
2022-11-14T03:45:05.190Z,27.00
2022-11-14T03:47:31.693Z,30.10
2022-11-14T03:49:58.077Z,27.73
2022-11-14T03:52:26.085Z,30.13
2022-11-14T03:54:52.510Z,30.60
2022-11-14T03:57:18.946Z,31.07
2022-11-14T03:59:45.310Z,28.07
2022-11-14T04:02:12.064Z,36.30
2022-11-14T04:04:38.453Z,33.63
2022-11-14T04:07:04.976Z,32.00
2022-11-14T04:09:32.447Z,29.37
2022-11-14T04:11:58.772Z,32.97
2022-11-14T04:14:26.221Z,31.23
2022-11-14T04:16:52.616Z,30.70
2022-11-14T04:19:18.976Z,35.50
2022-11-14T04:21:45.326Z,38.10
2022-11-14T04:24:11.746Z,32.70
2022-11-14T04:26:38.123Z,34.20
2022-11-14T04:29:04.474Z,33.27
2022-11-14T04:31:30.837Z,32.27
2022-11-14T04:33:57.296Z,32.80
2022-11-14T04:36:23.673Z,33.17
2022-11-14T04:38:50.135Z,31.13
2022-11-14T04:41:16.484Z,35.03
2022-11-14T04:43:46.730Z,30.93
2022-11-14T04:46:15.989Z,30.67
2022-11-14T04:48:42.358Z,34.47
2022-11-14T04:51:09.158Z,35.03
2022-11-14T04:53:35.657Z,35.70
2022-11-14T04:56:02.256Z,30.93
2022-11-14T04:58:28.940Z,34.30
2022-11-14T05:00:57.885Z,32.63
2022-11-14T05:03:25.153Z,33.60
2022-11-14T05:05:51.816Z,35.63
2022-11-14T05:08:18.172Z,37.30
2022-11-14T05:10:45.735Z,32.20
2022-11-14T05:13:12.997Z,34.97
2022-11-14T05:15:39.432Z,31.67
2022-11-14T05:18:05.859Z,34.37
2022-11-14T05:20:32.272Z,36.87
2022-11-14T05:22:58.783Z,34.33
2022-11-14T05:25:25.292Z,39.73
2022-11-14T05:27:51.693Z,36.17
2022-11-14T05:30:18.165Z,33.80
2022-11-14T05:32:44.839Z,38.57
2022-11-14T05:35:11.468Z,34.33
2022-11-14T05:37:38.277Z,38.53
2022-11-14T05:40:05.796Z,32.20
2022-11-14T05:42:32.601Z,33.13
2022-11-14T05:44:58.983Z,34.43
2022-11-14T05:47:25.353Z,34.40
2022-11-14T05:49:51.714Z,37.77
2022-11-14T05:52:18.101Z,34.40
2022-11-14T05:54:44.453Z,33.43
2022-11-14T05:57:10.826Z,34.40
2022-11-14T05:59:37.173Z,33.03
2022-11-14T06:02:03.633Z,34.27
2022-11-14T06:04:30.123Z,30.87
2022-11-14T06:06:56.540Z,35.03
2022-11-14T06:09:23.057Z,33.83
2022-11-14T06:11:49.413Z,36.73
2022-11-14T06:14:15.884Z,34.00
2022-11-14T06:16:42.271Z,33.97
2022-11-14T06:19:08.614Z,31.93
2022-11-14T06:21:35.031Z,34.53
2022-11-14T06:24:01.567Z,34.33
2022-11-14T06:26:32.709Z,35.40
2022-11-14T06:29:00.662Z,34.07
2022-11-14T06:31:27.656Z,30.30
2022-11-14T06:33:54.500Z,35.60
2022-11-14T06:36:20.875Z,34.13
2022-11-14T06:38:47.440Z,34.00
2022-11-14T06:41:19.441Z,34.90
2022-11-14T06:43:47.950Z,34.43
2022-11-14T06:46:17.893Z,29.10
2022-11-14T06:48:46.961Z,34.33
2022-11-14T06:51:15.476Z,36.67
2022-11-14T06:53:42.617Z,33.60
2022-11-14T06:56:11.634Z,35.27
2022-11-14T06:58:40.673Z,31.30
2022-11-14T07:01:25.917Z,35.47
2022-11-14T07:03:52.296Z,30.60
2022-11-14T07:06:24.097Z,32.20
2022-11-14T07:08:52.294Z,36.47
2022-11-14T07:11:26.624Z,36.30
2022-11-14T07:13:55.195Z,33.23
2022-11-14T07:16:25.464Z,33.07
2022-11-14T07:18:52.364Z,34.00
2022-11-14T07:21:18.707Z,36.50
2022-11-14T07:23:45.093Z,34.33
2022-11-14T07:26:11.927Z,30.43
2022-11-14T07:28:41.405Z,32.10
2022-11-14T07:31:12.431Z,34.60
2022-11-14T07:33:39.349Z,34.93
2022-11-14T07:36:06.407Z,31.60
2022-11-14T07:38:34.034Z,32.57
2022-11-14T07:41:03.083Z,33.00
2022-11-14T07:43:29.776Z,33.73
2022-11-14T07:46:08.228Z,35.90
2022-11-14T07:48:34.605Z,35.60
2022-11-14T07:51:02.862Z,33.73
2022-11-14T07:53:29.794Z,31.70
2022-11-14T07:55:57.343Z,29.40
2022-11-14T07:58:23.860Z,34.00
2022-11-14T08:00:51.320Z,33.07
2022-11-14T08:03:17.740Z,34.30
2022-11-14T08:05:44.234Z,40.80
2022-11-14T08:08:10.689Z,33.47
2022-11-14T08:10:37.157Z,35.03
2022-11-14T08:13:34.060Z,32.20
2022-11-14T08:15:53.063Z,39.97
2022-11-14T08:18:19.793Z,34.80
2022-11-14T08:20:46.304Z,35.87
2022-11-14T08:23:15.403Z,31.87
2022-11-14T08:25:42.105Z,33.40
2022-11-14T08:28:08.922Z,35.80
2022-11-14T08:30:35.533Z,28.87
2022-11-14T08:33:03.686Z,32.17
2022-11-14T08:35:30.160Z,31.47
2022-11-14T08:37:56.865Z,34.90
2022-11-14T08:40:25.774Z,30.50
2022-11-14T08:42:52.288Z,28.00
2022-11-14T08:45:18.890Z,32.27
2022-11-14T08:47:51.291Z,30.00
2022-11-14T08:50:17.800Z,29.47
2022-11-14T08:52:49.590Z,30.90
2022-11-14T08:55:15.956Z,31.23
2022-11-14T08:57:46.607Z,26.03
2022-11-14T09:00:16.217Z,25.53
2022-11-14T09:02:42.588Z,26.70
2022-11-14T09:05:09.674Z,24.73
2022-11-14T09:07:36.218Z,25.53
2022-11-14T09:10:02.912Z,24.47
2022-11-14T09:12:30.494Z,27.57
2022-11-14T09:14:56.910Z,28.13
2022-11-14T09:17:23.316Z,28.17
2022-11-14T09:19:50.055Z,23.03
2022-11-14T09:22:16.596Z,23.53
2022-11-14T09:24:43.192Z,27.80
2022-11-14T09:27:09.595Z,29.23
2022-11-14T09:29:35.963Z,23.87
2022-11-14T09:32:02.346Z,25.70
2022-11-14T09:34:28.696Z,25.83
2022-11-14T09:36:55.066Z,23.53
2022-11-14T09:39:21.584Z,23.13
2022-11-14T09:42:15.830Z,23.63
2022-11-14T09:44:58.717Z,21.93
2022-11-14T09:47:38.279Z,29.03
2022-11-14T09:50:21.768Z,24.50
2022-11-14T09:53:07.705Z,26.90
2022-11-14T09:55:37.213Z,22.10
2022-11-14T09:58:05.117Z,26.00
2022-11-14T10:00:50.294Z,21.07
2022-11-14T10:03:42.692Z,23.40
2022-11-14T10:06:22.866Z,23.90
2022-11-14T10:09:11.109Z,22.03
2022-11-14T10:11:55.828Z,20.77
2022-11-14T10:14:49.428Z,24.70
2022-11-14T10:17:40.706Z,22.23
2022-11-14T10:20:31.359Z,17.90
2022-11-14T10:23:10.876Z,20.27
2022-11-14T10:26:08.277Z,20.43
2022-11-14T10:29:17.807Z,21.07
2022-11-14T10:32:01.898Z,16.63
2022-11-14T10:34:36.262Z,19.80
2022-11-14T10:37:24.934Z,20.53
2022-11-14T10:39:54.195Z,16.40
2022-11-14T10:42:34.554Z,21.00
2022-11-14T10:45:11.847Z,21.23
2022-11-14T10:47:44.699Z,17.07
2022-11-14T10:50:25.089Z,20.47
2022-11-14T10:52:57.544Z,19.50
2022-11-14T10:55:49.707Z,18.97
2022-11-14T10:58:13.600Z,16.53
2022-11-14T11:00:40.194Z,16.47
2022-11-14T11:03:07.594Z,15.97
2022-11-14T11:05:45.840Z,15.30
2022-11-14T11:08:46.822Z,17.93
2022-11-14T11:11:32.527Z,17.30
2022-11-14T11:14:01.391Z,18.50
2022-11-14T11:16:28.962Z,14.87
2022-11-14T11:19:14.645Z,20.80
2022-11-14T11:21:50.274Z,14.87
2022-11-14T11:24:37.003Z,16.73
2022-11-14T11:27:18.625Z,18.00
2022-11-14T11:29:45.018Z,17.43
2022-11-14T11:32:24.887Z,13.37
2022-11-14T11:34:51.529Z,13.93
2022-11-14T11:37:54.962Z,16.03
2022-11-14T11:40:25.698Z,14.60
2022-11-14T11:43:37.361Z,14.43
2022-11-14T11:45:53.078Z,14.90
2022-11-14T11:48:22.318Z,14.70
2022-11-14T11:50:49.941Z,14.43
2022-11-14T11:53:24.332Z,14.40
2022-11-14T11:55:55.057Z,13.50
2022-11-14T11:58:32.853Z,15.80
2022-11-14T12:00:59.286Z,13.43
2022-11-14T12:03:26.864Z,13.93
2022-11-14T12:06:15.192Z,15.80
2022-11-14T12:08:53.625Z,14.67
2022-11-14T12:11:24.020Z,14.63
2022-11-14T12:14:25.529Z,12.93
2022-11-14T12:17:07.141Z,13.40
2022-11-14T12:19:45.899Z,16.50
2022-11-14T12:22:31.195Z,11.83
2022-11-14T12:25:35.276Z,15.80
2022-11-14T12:28:26.590Z,12.00
2022-11-14T12:30:58.966Z,14.13
2022-11-14T12:33:34.666Z,14.90
2022-11-14T12:36:04.440Z,11.40
2022-11-14T12:38:42.170Z,12.90
2022-11-14T12:41:09.605Z,14.87
2022-11-14T12:43:37.763Z,15.37
2022-11-14T12:46:11.536Z,12.30
2022-11-14T12:48:45.800Z,12.13
2022-11-14T12:51:27.498Z,13.63
2022-11-14T12:53:55.344Z,15.63
2022-11-14T12:56:30.725Z,14.77
2022-11-14T12:59:26.609Z,15.07
2022-11-14T13:01:54.026Z,13.93
2022-11-14T13:04:26.518Z,12.97
2022-11-14T13:07:14.298Z,16.27
2022-11-14T13:09:53.652Z,13.63
2022-11-14T13:12:47.932Z,13.20
2022-11-14T13:15:50.599Z,14.90
2022-11-14T13:18:43.945Z,12.90
2022-11-14T13:21:45.338Z,13.20
2022-11-14T13:24:17.071Z,13.97
2022-11-14T13:26:52.482Z,14.90
2022-11-14T13:29:40.720Z,14.43
2022-11-14T13:32:11.377Z,15.10
2022-11-14T13:34:48.998Z,17.90
2022-11-14T13:37:34.181Z,14.87
2022-11-14T13:40:13.008Z,15.30
2022-11-14T13:42:45.225Z,18.40
2022-11-14T13:45:36.056Z,15.50
2022-11-14T13:48:11.478Z,13.77
2022-11-14T13:50:40.464Z,15.03
2022-11-14T13:53:20.704Z,14.23
2022-11-14T13:55:55.310Z,13.17
2022-11-14T13:58:48.931Z,16.03
2022-11-14T14:01:27.997Z,14.13
2022-11-14T14:04:13.208Z,15.67
2022-11-14T14:07:24.062Z,14.77
2022-11-14T14:10:26.997Z,15.60
2022-11-14T14:12:53.300Z,12.83
2022-11-14T14:15:19.661Z,15.43
2022-11-14T14:18:08.315Z,16.90
2022-11-14T14:21:05.923Z,13.60
2022-11-14T14:23:39.055Z,15.07
2022-11-14T14:26:23.163Z,15.27
2022-11-14T14:29:12.925Z,15.67
2022-11-14T14:31:41.496Z,16.70
2022-11-14T14:34:31.059Z,13.83
2022-11-14T14:36:58.524Z,15.00
2022-11-14T14:39:27.014Z,17.17
2022-11-14T14:41:58.395Z,16.17
2022-11-14T14:44:36.871Z,21.43
2022-11-14T14:47:34.563Z,16.47
2022-11-14T14:50:03.720Z,19.60
2022-11-14T14:52:36.864Z,16.43
2022-11-14T14:55:08.578Z,17.57
2022-11-14T14:57:35.111Z,17.23
2022-11-14T15:00:22.201Z,19.57
2022-11-14T15:02:50.089Z,16.17
2022-11-14T15:05:28.305Z,16.80
2022-11-14T15:08:00.587Z,19.73
2022-11-14T15:10:30.063Z,16.23
2022-11-14T15:12:58.146Z,18.27
2022-11-14T15:15:26.478Z,20.93
2022-11-14T15:17:54.954Z,21.47
2022-11-14T15:20:29.629Z,23.33
2022-11-14T15:23:15.351Z,19.23
2022-11-14T15:25:42.471Z,22.20
2022-11-14T15:28:21.847Z,23.90
2022-11-14T15:31:00.039Z,96.40
2022-11-14T15:33:31.982Z,36.80
2022-11-14T15:36:13.487Z,37.93
2022-11-14T15:38:44.632Z,36.43
2022-11-14T15:41:25.281Z,39.57
2022-11-14T15:43:55.172Z,39.90
2022-11-14T15:46:33.608Z,43.20
2022-11-14T15:49:01.606Z,41.90
2022-11-14T15:51:39.272Z,43.43
2022-11-14T15:54:06.823Z,45.47
2022-11-14T15:56:33.310Z,47.23
2022-11-14T15:58:59.698Z,46.37
2022-11-14T16:01:26.518Z,45.70
2022-11-14T16:03:52.968Z,44.57
2022-11-14T16:06:19.372Z,46.30
2022-11-14T16:08:46.145Z,45.20
2022-11-14T16:11:13.413Z,48.87
2022-11-14T16:13:39.755Z,49.97
2022-11-14T16:16:06.262Z,47.93
2022-11-14T16:18:32.617Z,45.37
2022-11-14T16:20:59.636Z,45.37
2022-11-14T16:23:26.002Z,48.77
2022-11-14T16:25:52.555Z,44.83
2022-11-14T16:28:18.897Z,42.07
2022-11-14T16:30:45.428Z,48.47
2022-11-14T16:33:11.840Z,44.33
2022-11-14T16:35:38.373Z,44.13
2022-11-14T16:38:04.797Z,46.97
2022-11-14T16:40:31.208Z,46.67
2022-11-14T16:42:59.445Z,40.57
2022-11-14T16:45:27.624Z,44.23
2022-11-14T16:47:54.073Z,48.07
2022-11-14T16:50:20.432Z,41.13
2022-11-14T16:52:46.955Z,41.20
2022-11-14T16:55:13.439Z,41.83
2022-11-14T16:57:40.674Z,40.57
2022-11-14T17:00:10.769Z,42.57
2022-11-14T17:02:37.236Z,42.27
2022-11-14T17:05:03.816Z,43.07
2022-11-14T17:07:32.685Z,39.37
2022-11-14T17:10:02.518Z,41.70
2022-11-14T17:12:29.015Z,42.27
2022-11-14T17:14:55.346Z,42.53
2022-11-14T17:17:22.776Z,41.87
2022-11-14T17:19:49.696Z,37.77
2022-11-14T17:22:19.737Z,39.53
2022-11-14T17:24:46.143Z,40.10
2022-11-14T17:27:15.474Z,41.40
2022-11-14T17:29:41.911Z,36.90
2022-11-14T17:32:08.254Z,40.13
2022-11-14T17:34:34.624Z,38.67
2022-11-14T17:37:00.970Z,37.03
2022-11-14T17:39:27.386Z,40.13
2022-11-14T17:41:53.765Z,35.97
2022-11-14T17:44:20.109Z,37.30
2022-11-14T17:46:47.631Z,36.13
2022-11-14T17:49:14.014Z,35.17
2022-11-14T17:51:40.417Z,35.77
2022-11-14T17:54:06.928Z,36.53
2022-11-14T17:56:33.336Z,35.70
2022-11-14T17:58:59.676Z,29.77
2022-11-14T18:01:26.391Z,33.73
2022-11-14T18:03:52.899Z,35.50
2022-11-14T18:06:20.883Z,32.03
2022-11-14T18:08:48.121Z,31.33
2022-11-14T18:11:16.951Z,31.33
2022-11-14T18:13:43.734Z,30.53
2022-11-14T18:16:14.436Z,33.97
2022-11-14T18:18:41.296Z,30.87
2022-11-14T18:21:13.663Z,37.13
2022-11-14T18:23:40.131Z,30.67
2022-11-14T18:26:14.428Z,30.10
2022-11-14T18:28:41.845Z,31.93
2022-11-14T18:31:13.465Z,30.43
2022-11-14T18:33:41.795Z,31.53
2022-11-14T18:36:11.952Z,29.27
2022-11-14T18:38:38.438Z,27.87
2022-11-14T18:41:08.955Z,29.17
2022-11-14T18:43:35.947Z,31.20
2022-11-14T18:46:10.242Z,26.87
2022-11-14T18:48:38.535Z,27.50
2022-11-14T18:51:08.189Z,30.00
2022-11-14T18:53:36.062Z,26.03
2022-11-14T18:56:13.600Z,25.87
2022-11-14T18:58:41.340Z,27.87
2022-11-14T19:01:16.584Z,27.53
2022-11-14T19:03:42.972Z,28.60
2022-11-14T19:06:12.030Z,23.93
2022-11-14T19:08:39.552Z,23.80
2022-11-14T19:11:08.871Z,26.20
2022-11-14T19:13:35.233Z,23.30
2022-11-14T19:16:05.983Z,22.30
2022-11-14T19:18:32.881Z,21.77
2022-11-14T19:21:01.346Z,23.13
2022-11-14T19:23:28.618Z,28.83
2022-11-14T19:25:59.967Z,23.93
2022-11-14T19:28:27.324Z,24.27
2022-11-14T19:30:53.752Z,26.77
2022-11-14T19:33:20.104Z,24.87
2022-11-14T19:35:46.589Z,25.57
2022-11-14T19:38:13.561Z,24.40
2022-11-14T19:40:39.920Z,24.03
2022-11-14T19:43:07.359Z,23.03
2022-11-14T19:45:35.060Z,24.67
2022-11-14T19:48:01.966Z,24.90
2022-11-14T19:50:28.538Z,27.50
2022-11-14T19:52:54.955Z,29.67
2022-11-14T19:55:21.376Z,27.17
2022-11-14T19:57:47.874Z,26.33
2022-11-14T20:00:14.961Z,29.87
2022-11-14T20:02:41.430Z,28.37
2022-11-14T20:05:08.465Z,29.37
2022-11-14T20:07:37.603Z,33.30
2022-11-14T20:10:04.965Z,31.53
2022-11-14T20:12:34.499Z,29.90
2022-11-14T20:15:02.439Z,35.70
2022-11-14T20:17:28.972Z,31.53
2022-11-14T20:19:55.406Z,29.60
2022-11-14T20:22:22.107Z,34.80
2022-11-14T20:24:48.453Z,31.83
2022-11-14T20:27:14.914Z,34.20
2022-11-14T20:29:41.296Z,35.90
2022-11-14T20:32:11.613Z,30.70
2022-11-14T20:34:40.923Z,33.13
2022-11-14T20:37:11.714Z,28.30
2022-11-14T20:39:38.538Z,36.47
2022-11-14T20:42:05.044Z,33.23
2022-11-14T20:44:31.428Z,42.00
2022-11-14T20:46:57.790Z,33.10
2022-11-14T20:49:24.232Z,32.20
2022-11-14T20:51:50.642Z,34.60
2022-11-14T20:54:17.205Z,36.60
2022-11-14T20:56:43.544Z,39.03
2022-11-14T20:59:09.973Z,35.67
2022-11-14T21:01:42.124Z,40.70
2022-11-14T21:04:10.271Z,39.57
2022-11-14T21:06:36.728Z,38.70
2022-11-14T21:09:03.218Z,40.63
2022-11-14T21:11:29.653Z,39.53
2022-11-14T21:13:56.047Z,39.53
2022-11-14T21:16:24.871Z,42.27
2022-11-14T21:18:55.364Z,40.40
2022-11-14T21:21:27.419Z,44.43
2022-11-14T21:23:54.699Z,41.40
2022-11-14T21:26:24.160Z,34.80
2022-11-14T21:28:54.501Z,36.80
2022-11-14T21:31:32.289Z,42.73
2022-11-14T21:34:01.054Z,36.23
2022-11-14T21:36:45.837Z,44.67
2022-11-14T21:39:14.823Z,46.50
2022-11-14T21:41:42.802Z,42.93
2022-11-14T21:44:11.888Z,46.17
2022-11-14T21:46:38.698Z,46.13
2022-11-14T21:49:05.085Z,36.83
2022-11-14T21:51:32.534Z,42.90
2022-11-14T21:53:58.964Z,38.20
2022-11-14T21:56:27.893Z,42.67
2022-11-14T21:59:12.631Z,38.63
2022-11-14T22:01:59.976Z,37.00
2022-11-14T22:04:26.967Z,42.77
2022-11-14T22:06:54.135Z,38.73
2022-11-14T22:09:20.882Z,41.10
2022-11-14T22:11:47.362Z,42.60
2022-11-14T22:14:13.862Z,34.70
2022-11-14T22:16:40.399Z,38.00
2022-11-14T22:19:06.866Z,39.43
2022-11-14T22:21:33.332Z,36.40
2022-11-14T22:24:00.072Z,37.67
2022-11-14T22:26:26.576Z,41.60
2022-11-14T22:28:53.089Z,44.13
2022-11-14T22:31:24.522Z,33.03
2022-11-14T22:33:54.188Z,44.30
2022-11-14T22:36:25.971Z,45.03
2022-11-14T22:38:54.135Z,39.93
2022-11-14T22:41:26.478Z,44.07
2022-11-14T22:43:57.671Z,43.43
2022-11-14T22:46:24.725Z,40.57
2022-11-14T22:48:51.329Z,38.50
2022-11-14T22:51:20.881Z,40.73
2022-11-14T22:53:52.272Z,40.77
2022-11-14T22:56:21.091Z,42.43
2022-11-14T22:58:47.525Z,51.10
2022-11-14T23:01:15.895Z,49.07
2022-11-14T23:03:42.456Z,43.73
2022-11-14T23:06:14.333Z,52.63
2022-11-14T23:08:41.020Z,45.07
2022-11-14T23:11:11.041Z,48.37
2022-11-14T23:13:42.188Z,49.73
2022-11-14T23:16:13.703Z,48.13
2022-11-14T23:18:40.615Z,42.40
2022-11-14T23:21:28.658Z,44.50
2022-11-14T23:23:59.441Z,56.57
2022-11-14T23:26:27.285Z,47.90
2022-11-14T23:28:54.593Z,49.73
2022-11-14T23:31:21.555Z,46.07
2022-11-14T23:33:50.195Z,48.40
2022-11-14T23:36:17.261Z,60.57
2022-11-14T23:38:43.706Z,60.33
2022-11-14T23:41:17.200Z,54.53
2022-11-14T23:43:43.709Z,45.00
2022-11-14T23:46:10.187Z,53.13
2022-11-14T23:48:36.572Z,54.93
2022-11-14T23:51:02.916Z,52.10
2022-11-14T23:53:30.066Z,52.90
2022-11-14T23:55:59.142Z,46.40
2022-11-14T23:58:27.023Z,46.57
